Lemmon, South Dakota
Current Conditions -  °F | °C
As of 7:53 PM on Friday 24 Oct 2014 (Local Time) from KHEI Reporting Station
Broken Clouds Broken Clouds  
Wind Chill: 50°   Ceiling: 12000
Heat Index: 50°   Visibility: 10mi
Dew Point: 34°   Wind: 7mph
Humidity: 54%   Direction: 310°NW
Pressure: 30.06"   Gusts: NA
Location:  45.94°N, 102.16°W
Report Text: KHEI 250153Z AUTO 31006KT 10SM BKN120 10/01 A3006 RMK AO2 SLP190 T01000011
Loading
Personal Weather Stations






























Interactive Weather Map New forecast layout! Learn more

10-Day Weather Forecast

Advertisements
Track Severe Weather on mobile